sensor_id;sensor_type;location;lat;lon;timestamp;temperature;humidity
19017;DHT22;9641;51.494;6.670;2022-07-29T00:01:38;19.70;1.00
19017;DHT22;9641;51.494;6.670;2022-07-29T00:04:05;19.70;1.00
19017;DHT22;9641;51.494;6.670;2022-07-29T00:06:32;19.70;1.00
19017;DHT22;9641;51.494;6.670;2022-07-29T00:08:59;19.80;1.00
19017;DHT22;9641;51.494;6.670;2022-07-29T00:11:26;19.80;1.00
19017;DHT22;9641;51.494;6.670;2022-07-29T00:13:53;19.70;1.00
19017;DHT22;9641;51.494;6.670;2022-07-29T00:16:21;19.70;1.00
19017;DHT22;9641;51.494;6.670;2022-07-29T00:18:50;19.70;1.00
19017;DHT22;9641;51.494;6.670;2022-07-29T00:21:16;19.70;1.00
19017;DHT22;9641;51.494;6.670;2022-07-29T00:23:44;19.70;1.00
19017;DHT22;9641;51.494;6.670;2022-07-29T00:26:13;19.70;1.00
19017;DHT22;9641;51.494;6.670;2022-07-29T00:28:40;19.70;1.00
19017;DHT22;9641;51.494;6.670;2022-07-29T00:31:07;19.60;1.00
19017;DHT22;9641;51.494;6.670;2022-07-29T00:33:35;19.60;1.00
19017;DHT22;9641;51.494;6.670;2022-07-29T00:36:03;19.60;1.00
19017;DHT22;9641;51.494;6.670;2022-07-29T00:38:29;19.60;1.00
19017;DHT22;9641;51.494;6.670;2022-07-29T00:40:55;19.50;1.00
19017;DHT22;9641;51.494;6.670;2022-07-29T00:43:22;19.50;1.00
19017;DHT22;9641;51.494;6.670;2022-07-29T00:45:50;19.50;1.00
19017;DHT22;9641;51.494;6.670;2022-07-29T00:48:18;19.50;1.00
19017;DHT22;9641;51.494;6.670;2022-07-29T00:50:46;19.40;1.00
19017;DHT22;9641;51.494;6.670;2022-07-29T00:53:13;19.40;1.00
19017;DHT22;9641;51.494;6.670;2022-07-29T00:55:40;19.40;1.00
19017;DHT22;9641;51.494;6.670;2022-07-29T00:58:07;19.40;1.00
19017;DHT22;9641;51.494;6.670;2022-07-29T01:00:37;19.40;1.00
19017;DHT22;9641;51.494;6.670;2022-07-29T01:03:06;19.30;1.00
19017;DHT22;9641;51.494;6.670;2022-07-29T01:05:34;19.30;1.00
19017;DHT22;9641;51.494;6.670;2022-07-29T01:08:02;19.30;1.00
19017;DHT22;9641;51.494;6.670;2022-07-29T01:10:30;19.20;1.00
19017;DHT22;9641;51.494;6.670;2022-07-29T01:12:58;19.20;1.00
19017;DHT22;9641;51.494;6.670;2022-07-29T01:15:25;19.20;1.00
19017;DHT22;9641;51.494;6.670;2022-07-29T01:18:00;19.20;1.00
19017;DHT22;9641;51.494;6.670;2022-07-29T01:20:39;19.20;1.00
19017;DHT22;9641;51.494;6.670;2022-07-29T01:23:46;19.20;1.00
19017;DHT22;9641;51.494;6.670;2022-07-29T01:29:34;19.20;1.00
19017;DHT22;9641;51.494;6.670;2022-07-29T01:32:08;19.20;1.00
19017;DHT22;9641;51.494;6.670;2022-07-29T01:34:42;19.10;1.00
19017;DHT22;9641;51.494;6.670;2022-07-29T01:37:18;19.00;1.00
19017;DHT22;9641;51.494;6.670;2022-07-29T01:39:48;19.10;1.00
19017;DHT22;9641;51.494;6.670;2022-07-29T01:42:25;19.10;1.00
19017;DHT22;9641;51.494;6.670;2022-07-29T01:44:59;19.10;1.00
19017;DHT22;9641;51.494;6.670;2022-07-29T01:47:31;19.00;1.00
19017;DHT22;9641;51.494;6.670;2022-07-29T01:50:00;19.00;1.00
19017;DHT22;9641;51.494;6.670;2022-07-29T01:52:32;18.90;1.00
19017;DHT22;9641;51.494;6.670;2022-07-29T01:55:04;18.90;1.00
19017;DHT22;9641;51.494;6.670;2022-07-29T01:57:33;19.00;1.00
19017;DHT22;9641;51.494;6.670;2022-07-29T02:00:05;19.00;1.00
19017;DHT22;9641;51.494;6.670;2022-07-29T02:02:39;19.00;1.00
19017;DHT22;9641;51.494;6.670;2022-07-29T02:05:08;19.00;1.00
19017;DHT22;9641;51.494;6.670;2022-07-29T02:07:37;19.00;1.00
19017;DHT22;9641;51.494;6.670;2022-07-29T02:10:06;18.90;1.00
19017;DHT22;9641;51.494;6.670;2022-07-29T02:12:33;18.90;1.00
19017;DHT22;9641;51.494;6.670;2022-07-29T02:15:04;18.90;1.00
19017;DHT22;9641;51.494;6.670;2022-07-29T02:17:35;19.00;1.00
19017;DHT22;9641;51.494;6.670;2022-07-29T02:20:07;18.90;1.00
19017;DHT22;9641;51.494;6.670;2022-07-29T02:22:44;18.90;1.00
19017;DHT22;9641;51.494;6.670;2022-07-29T02:25:12;18.80;1.00
19017;DHT22;9641;51.494;6.670;2022-07-29T02:27:42;18.80;1.00
19017;DHT22;9641;51.494;6.670;2022-07-29T02:30:12;18.70;1.00
19017;DHT22;9641;51.494;6.670;2022-07-29T02:32:40;18.70;1.00
19017;DHT22;9641;51.494;6.670;2022-07-29T02:35:09;18.70;1.00
19017;DHT22;9641;51.494;6.670;2022-07-29T02:37:38;18.60;1.00
19017;DHT22;9641;51.494;6.670;2022-07-29T02:40:10;18.60;1.00
19017;DHT22;9641;51.494;6.670;2022-07-29T02:42:37;18.50;1.00
19017;DHT22;9641;51.494;6.670;2022-07-29T02:45:06;18.50;1.00
19017;DHT22;9641;51.494;6.670;2022-07-29T02:47:38;18.50;1.00
19017;DHT22;9641;51.494;6.670;2022-07-29T02:50:11;18.40;1.00
19017;DHT22;9641;51.494;6.670;2022-07-29T02:52:43;18.30;19.30
19017;DHT22;9641;51.494;6.670;2022-07-29T02:55:16;18.30;99.90
19017;DHT22;9641;51.494;6.670;2022-07-29T02:57:46;18.20;99.90
19017;DHT22;9641;51.494;6.670;2022-07-29T03:00:15;18.20;1.00
19017;DHT22;9641;51.494;6.670;2022-07-29T03:02:50;18.20;1.00
19017;DHT22;9641;51.494;6.670;2022-07-29T03:05:20;18.20;99.90
19017;DHT22;9641;51.494;6.670;2022-07-29T03:07:51;18.10;1.00
19017;DHT22;9641;51.494;6.670;2022-07-29T03:10:20;18.00;1.00
19017;DHT22;9641;51.494;6.670;2022-07-29T03:12:48;17.90;99.90
19017;DHT22;9641;51.494;6.670;2022-07-29T03:15:15;17.70;1.00
19017;DHT22;9641;51.494;6.670;2022-07-29T03:17:42;17.60;99.90
19017;DHT22;9641;51.494;6.670;2022-07-29T03:20:12;17.50;1.00
19017;DHT22;9641;51.494;6.670;2022-07-29T03:22:40;17.40;1.00
19017;DHT22;9641;51.494;6.670;2022-07-29T03:25:09;17.30;1.00
19017;DHT22;9641;51.494;6.670;2022-07-29T03:27:36;17.30;1.00
19017;DHT22;9641;51.494;6.670;2022-07-29T03:30:04;17.40;1.00
19017;DHT22;9641;51.494;6.670;2022-07-29T03:32:31;17.30;99.90
19017;DHT22;9641;51.494;6.670;2022-07-29T03:34:58;17.40;1.00
19017;DHT22;9641;51.494;6.670;2022-07-29T03:37:26;17.40;1.00
19017;DHT22;9641;51.494;6.670;2022-07-29T03:39:55;17.50;1.00
19017;DHT22;9641;51.494;6.670;2022-07-29T03:42:25;17.50;1.00
19017;DHT22;9641;51.494;6.670;2022-07-29T03:44:54;17.60;99.90
19017;DHT22;9641;51.494;6.670;2022-07-29T03:47:24;17.60;1.00
19017;DHT22;9641;51.494;6.670;2022-07-29T03:49:55;17.60;99.90
19017;DHT22;9641;51.494;6.670;2022-07-29T03:52:22;17.60;99.90
19017;DHT22;9641;51.494;6.670;2022-07-29T03:54:51;17.60;1.00
19017;DHT22;9641;51.494;6.670;2022-07-29T03:57:19;17.60;1.00
19017;DHT22;9641;51.494;6.670;2022-07-29T04:00:03;17.60;1.00
19017;DHT22;9641;51.494;6.670;2022-07-29T04:02:31;17.70;99.90
19017;DHT22;9641;51.494;6.670;2022-07-29T04:04:58;17.80;1.00
19017;DHT22;9641;51.494;6.670;2022-07-29T04:07:25;17.80;99.90
19017;DHT22;9641;51.494;6.670;2022-07-29T04:09:54;17.80;99.90
19017;DHT22;9641;51.494;6.670;2022-07-29T04:12:20;17.80;99.90
19017;DHT22;9641;51.494;6.670;2022-07-29T04:14:48;17.80;1.00
19017;DHT22;9641;51.494;6.670;2022-07-29T04:17:15;17.80;99.90
19017;DHT22;9641;51.494;6.670;2022-07-29T04:19:42;17.70;1.00
19017;DHT22;9641;51.494;6.670;2022-07-29T04:22:09;17.70;1.00
19017;DHT22;9641;51.494;6.670;2022-07-29T04:24:36;17.60;1.00
19017;DHT22;9641;51.494;6.670;2022-07-29T04:27:04;17.50;1.00
19017;DHT22;9641;51.494;6.670;2022-07-29T04:29:31;17.30;1.00
19017;DHT22;9641;51.494;6.670;2022-07-29T04:31:57;17.00;1.00
19017;DHT22;9641;51.494;6.670;2022-07-29T04:34:24;16.80;25.80
19017;DHT22;9641;51.494;6.670;2022-07-29T04:36:51;16.70;92.40
19017;DHT22;9641;51.494;6.670;2022-07-29T04:39:19;16.60;99.90
19017;DHT22;9641;51.494;6.670;2022-07-29T04:41:46;16.50;99.90
19017;DHT22;9641;51.494;6.670;2022-07-29T04:44:16;16.40;99.90
19017;DHT22;9641;51.494;6.670;2022-07-29T04:46:43;16.40;99.90
19017;DHT22;9641;51.494;6.670;2022-07-29T04:49:10;16.50;99.90
19017;DHT22;9641;51.494;6.670;2022-07-29T04:51:36;16.40;99.90
19017;DHT22;9641;51.494;6.670;2022-07-29T04:54:03;16.40;99.90
19017;DHT22;9641;51.494;6.670;2022-07-29T04:56:31;16.40;99.90
19017;DHT22;9641;51.494;6.670;2022-07-29T04:58:58;16.30;99.90
19017;DHT22;9641;51.494;6.670;2022-07-29T05:01:26;16.30;99.90
19017;DHT22;9641;51.494;6.670;2022-07-29T05:03:53;16.20;99.90
19017;DHT22;9641;51.494;6.670;2022-07-29T05:06:20;16.20;99.90
19017;DHT22;9641;51.494;6.670;2022-07-29T05:08:47;16.20;99.90
19017;DHT22;9641;51.494;6.670;2022-07-29T05:11:14;16.10;99.90
19017;DHT22;9641;51.494;6.670;2022-07-29T05:13:40;16.10;99.90
19017;DHT22;9641;51.494;6.670;2022-07-29T05:16:08;16.10;99.90
19017;DHT22;9641;51.494;6.670;2022-07-29T05:18:36;16.20;99.90
19017;DHT22;9641;51.494;6.670;2022-07-29T05:21:03;16.20;99.90
19017;DHT22;9641;51.494;6.670;2022-07-29T05:23:30;16.20;99.90
19017;DHT22;9641;51.494;6.670;2022-07-29T05:25:58;16.30;99.90
19017;DHT22;9641;51.494;6.670;2022-07-29T05:28:24;16.30;99.90
19017;DHT22;9641;51.494;6.670;2022-07-29T05:30:51;16.30;99.90
19017;DHT22;9641;51.494;6.670;2022-07-29T05:33:18;16.40;99.90
19017;DHT22;9641;51.494;6.670;2022-07-29T05:35:48;16.40;99.90
19017;DHT22;9641;51.494;6.670;2022-07-29T05:38:15;16.30;99.90
19017;DHT22;9641;51.494;6.670;2022-07-29T05:40:42;16.20;99.90
19017;DHT22;9641;51.494;6.670;2022-07-29T05:43:09;16.20;99.90
19017;DHT22;9641;51.494;6.670;2022-07-29T05:45:38;16.10;99.90
19017;DHT22;9641;51.494;6.670;2022-07-29T05:48:05;16.10;99.90
19017;DHT22;9641;51.494;6.670;2022-07-29T05:50:32;16.20;99.90
19017;DHT22;9641;51.494;6.670;2022-07-29T05:53:00;16.20;99.90
19017;DHT22;9641;51.494;6.670;2022-07-29T05:55:27;16.30;99.90
19017;DHT22;9641;51.494;6.670;2022-07-29T05:57:54;16.40;99.90
19017;DHT22;9641;51.494;6.670;2022-07-29T06:00:21;16.40;99.90
19017;DHT22;9641;51.494;6.670;2022-07-29T06:02:49;16.50;99.90
19017;DHT22;9641;51.494;6.670;2022-07-29T06:05:17;16.50;99.90
19017;DHT22;9641;51.494;6.670;2022-07-29T06:07:44;16.40;99.90
19017;DHT22;9641;51.494;6.670;2022-07-29T06:10:12;16.40;99.90
19017;DHT22;9641;51.494;6.670;2022-07-29T06:12:41;16.40;99.90
19017;DHT22;9641;51.494;6.670;2022-07-29T06:15:09;16.40;99.90
19017;DHT22;9641;51.494;6.670;2022-07-29T06:17:36;16.40;99.90
19017;DHT22;9641;51.494;6.670;2022-07-29T06:20:04;16.50;99.90
19017;DHT22;9641;51.494;6.670;2022-07-29T06:22:32;16.50;99.90
19017;DHT22;9641;51.494;6.670;2022-07-29T06:25:02;16.60;99.90
19017;DHT22;9641;51.494;6.670;2022-07-29T06:27:32;16.60;99.90
19017;DHT22;9641;51.494;6.670;2022-07-29T06:29:58;16.60;99.90
19017;DHT22;9641;51.494;6.670;2022-07-29T06:32:27;16.70;99.90
19017;DHT22;9641;51.494;6.670;2022-07-29T06:34:55;16.80;99.90
19017;DHT22;9641;51.494;6.670;2022-07-29T06:37:22;16.80;99.90
19017;DHT22;9641;51.494;6.670;2022-07-29T06:39:48;16.90;99.90
19017;DHT22;9641;51.494;6.670;2022-07-29T06:42:41;16.90;99.90
19017;DHT22;9641;51.494;6.670;2022-07-29T06:45:09;17.00;99.90
19017;DHT22;9641;51.494;6.670;2022-07-29T06:47:36;17.00;99.90
19017;DHT22;9641;51.494;6.670;2022-07-29T06:50:04;17.00;99.90
19017;DHT22;9641;51.494;6.670;2022-07-29T06:52:37;17.00;99.90
19017;DHT22;9641;51.494;6.670;2022-07-29T06:55:05;16.90;99.90
19017;DHT22;9641;51.494;6.670;2022-07-29T06:57:32;16.90;99.90
19017;DHT22;9641;51.494;6.670;2022-07-29T07:00:01;16.80;99.90
19017;DHT22;9641;51.494;6.670;2022-07-29T07:02:29;17.00;99.90
19017;DHT22;9641;51.494;6.670;2022-07-29T07:04:59;17.00;99.90
19017;DHT22;9641;51.494;6.670;2022-07-29T07:07:31;17.10;99.90
19017;DHT22;9641;51.494;6.670;2022-07-29T07:09:58;17.00;99.90
19017;DHT22;9641;51.494;6.670;2022-07-29T07:12:24;17.00;99.90
19017;DHT22;9641;51.494;6.670;2022-07-29T07:14:53;16.90;99.90
19017;DHT22;9641;51.494;6.670;2022-07-29T07:17:21;16.80;99.90
19017;DHT22;9641;51.494;6.670;2022-07-29T07:19:49;16.80;99.90
19017;DHT22;9641;51.494;6.670;2022-07-29T07:22:15;16.70;99.90
19017;DHT22;9641;51.494;6.670;2022-07-29T07:24:42;16.60;99.90
19017;DHT22;9641;51.494;6.670;2022-07-29T07:27:12;16.50;99.90
19017;DHT22;9641;51.494;6.670;2022-07-29T07:29:39;16.50;99.90
19017;DHT22;9641;51.494;6.670;2022-07-29T07:32:07;16.50;99.90
19017;DHT22;9641;51.494;6.670;2022-07-29T07:34:36;16.50;99.90
19017;DHT22;9641;51.494;6.670;2022-07-29T07:37:03;16.50;99.90
19017;DHT22;9641;51.494;6.670;2022-07-29T07:39:31;16.50;99.90
19017;DHT22;9641;51.494;6.670;2022-07-29T07:41:58;16.50;99.90
19017;DHT22;9641;51.494;6.670;2022-07-29T07:44:26;16.50;99.90
19017;DHT22;9641;51.494;6.670;2022-07-29T07:46:54;16.50;99.90
19017;DHT22;9641;51.494;6.670;2022-07-29T07:49:21;16.50;99.90
19017;DHT22;9641;51.494;6.670;2022-07-29T07:51:50;16.60;99.90
19017;DHT22;9641;51.494;6.670;2022-07-29T07:54:18;16.60;99.90
19017;DHT22;9641;51.494;6.670;2022-07-29T07:56:45;16.60;99.90
19017;DHT22;9641;51.494;6.670;2022-07-29T07:59:14;16.60;99.90
19017;DHT22;9641;51.494;6.670;2022-07-29T08:01:41;16.70;99.90
19017;DHT22;9641;51.494;6.670;2022-07-29T08:04:08;16.70;99.90
19017;DHT22;9641;51.494;6.670;2022-07-29T08:06:36;16.70;99.90
19017;DHT22;9641;51.494;6.670;2022-07-29T08:09:06;16.70;99.90
19017;DHT22;9641;51.494;6.670;2022-07-29T08:11:35;16.80;99.90
19017;DHT22;9641;51.494;6.670;2022-07-29T08:14:02;16.90;99.90
19017;DHT22;9641;51.494;6.670;2022-07-29T08:16:29;16.90;99.90
19017;DHT22;9641;51.494;6.670;2022-07-29T08:18:56;16.90;99.90
19017;DHT22;9641;51.494;6.670;2022-07-29T08:21:24;16.90;99.90
19017;DHT22;9641;51.494;6.670;2022-07-29T08:23:51;17.10;99.90
19017;DHT22;9641;51.494;6.670;2022-07-29T08:26:41;17.10;99.90
19017;DHT22;9641;51.494;6.670;2022-07-29T08:29:09;17.10;99.90
19017;DHT22;9641;51.494;6.670;2022-07-29T08:31:36;17.00;99.90
19017;DHT22;9641;51.494;6.670;2022-07-29T08:34:04;16.90;99.90
19017;DHT22;9641;51.494;6.670;2022-07-29T08:36:33;16.90;99.90
19017;DHT22;9641;51.494;6.670;2022-07-29T08:39:02;16.80;99.90
19017;DHT22;9641;51.494;6.670;2022-07-29T08:41:30;16.80;99.90
19017;DHT22;9641;51.494;6.670;2022-07-29T08:43:59;16.80;99.90
19017;DHT22;9641;51.494;6.670;2022-07-29T08:46:26;16.80;99.90
19017;DHT22;9641;51.494;6.670;2022-07-29T08:48:53;16.80;99.90
19017;DHT22;9641;51.494;6.670;2022-07-29T08:51:21;16.80;99.90
19017;DHT22;9641;51.494;6.670;2022-07-29T08:53:53;16.90;99.90
19017;DHT22;9641;51.494;6.670;2022-07-29T08:56:22;17.00;99.90
19017;DHT22;9641;51.494;6.670;2022-07-29T08:58:49;17.00;99.90
19017;DHT22;9641;51.494;6.670;2022-07-29T09:01:24;17.10;99.90
19017;DHT22;9641;51.494;6.670;2022-07-29T09:03:55;17.30;99.90
19017;DHT22;9641;51.494;6.670;2022-07-29T09:06:22;17.40;99.90
19017;DHT22;9641;51.494;6.670;2022-07-29T09:08:54;17.60;99.90
19017;DHT22;9641;51.494;6.670;2022-07-29T09:11:21;17.60;99.90
19017;DHT22;9641;51.494;6.670;2022-07-29T09:13:49;17.90;99.90
19017;DHT22;9641;51.494;6.670;2022-07-29T09:16:17;18.20;99.90
19017;DHT22;9641;51.494;6.670;2022-07-29T09:18:49;18.40;99.90
19017;DHT22;9641;51.494;6.670;2022-07-29T09:21:17;18.70;99.90
19017;DHT22;9641;51.494;6.670;2022-07-29T09:24:05;18.90;99.90
19017;DHT22;9641;51.494;6.670;2022-07-29T09:26:37;18.90;99.90
19017;DHT22;9641;51.494;6.670;2022-07-29T09:29:09;18.90;99.90
19017;DHT22;9641;51.494;6.670;2022-07-29T09:31:38;19.10;99.90
19017;DHT22;9641;51.494;6.670;2022-07-29T09:34:08;19.20;99.90
19017;DHT22;9641;51.494;6.670;2022-07-29T09:36:39;19.20;99.90
19017;DHT22;9641;51.494;6.670;2022-07-29T09:39:06;19.20;99.90
19017;DHT22;9641;51.494;6.670;2022-07-29T09:41:47;19.30;90.60
19017;DHT22;9641;51.494;6.670;2022-07-29T09:44:15;19.40;99.90
19017;DHT22;9641;51.494;6.670;2022-07-29T09:46:57;19.30;99.90
19017;DHT22;9641;51.494;6.670;2022-07-29T09:49:26;19.30;99.90
19017;DHT22;9641;51.494;6.670;2022-07-29T09:52:04;19.50;99.90
19017;DHT22;9641;51.494;6.670;2022-07-29T09:54:35;19.60;1.00
19017;DHT22;9641;51.494;6.670;2022-07-29T09:57:07;19.60;16.40
19017;DHT22;9641;51.494;6.670;2022-07-29T09:59:38;19.70;1.00
19017;DHT22;9641;51.494;6.670;2022-07-29T10:02:11;19.70;1.00
19017;DHT22;9641;51.494;6.670;2022-07-29T10:04:41;19.80;1.00
19017;DHT22;9641;51.494;6.670;2022-07-29T10:07:09;19.90;99.90
19017;DHT22;9641;51.494;6.670;2022-07-29T10:09:37;19.90;1.00
19017;DHT22;9641;51.494;6.670;2022-07-29T10:12:10;19.90;1.00
19017;DHT22;9641;51.494;6.670;2022-07-29T10:14:39;19.90;1.00
19017;DHT22;9641;51.494;6.670;2022-07-29T10:17:08;19.90;1.00
19017;DHT22;9641;51.494;6.670;2022-07-29T10:19:38;19.70;1.00
19017;DHT22;9641;51.494;6.670;2022-07-29T10:22:08;19.60;1.00
19017;DHT22;9641;51.494;6.670;2022-07-29T10:24:37;19.50;64.60
19017;DHT22;9641;51.494;6.670;2022-07-29T10:27:06;19.40;99.90
19017;DHT22;9641;51.494;6.670;2022-07-29T10:29:34;19.40;99.90
19017;DHT22;9641;51.494;6.670;2022-07-29T10:32:19;19.40;99.90
19017;DHT22;9641;51.494;6.670;2022-07-29T10:35:08;19.30;99.90
19017;DHT22;9641;51.494;6.670;2022-07-29T10:37:57;19.30;99.90
19017;DHT22;9641;51.494;6.670;2022-07-29T10:40:36;19.40;99.90
19017;DHT22;9641;51.494;6.670;2022-07-29T10:43:25;19.50;99.90
19017;DHT22;9641;51.494;6.670;2022-07-29T10:45:56;19.70;99.90
19017;DHT22;9641;51.494;6.670;2022-07-29T10:48:24;19.80;60.00
19017;DHT22;9641;51.494;6.670;2022-07-29T10:51:07;19.90;1.00
19017;DHT22;9641;51.494;6.670;2022-07-29T10:53:49;19.80;4.60
19017;DHT22;9641;51.494;6.670;2022-07-29T10:56:24;19.80;9.60
19017;DHT22;9641;51.494;6.670;2022-07-29T10:59:23;19.90;12.70
19017;DHT22;9641;51.494;6.670;2022-07-29T11:01:52;19.90;1.00
19017;DHT22;9641;51.494;6.670;2022-07-29T11:07:20;20.70;1.00
19017;DHT22;9641;51.494;6.670;2022-07-29T11:10:23;20.80;98.10
19017;DHT22;9641;51.494;6.670;2022-07-29T11:12:50;21.10;99.90
19017;DHT22;9641;51.494;6.670;2022-07-29T11:15:20;21.20;1.00
19017;DHT22;9641;51.494;6.670;2022-07-29T11:18:07;21.30;1.00
19017;DHT22;9641;51.494;6.670;2022-07-29T11:20:36;21.50;1.00
19017;DHT22;9641;51.494;6.670;2022-07-29T11:23:21;21.70;1.00
19017;DHT22;9641;51.494;6.670;2022-07-29T11:26:15;22.00;1.00
19017;DHT22;9641;51.494;6.670;2022-07-29T11:28:51;22.10;1.00
19017;DHT22;9641;51.494;6.670;2022-07-29T11:31:31;22.40;99.90
19017;DHT22;9641;51.494;6.670;2022-07-29T11:34:17;22.70;14.50
19017;DHT22;9641;51.494;6.670;2022-07-29T11:37:15;23.10;99.90
19017;DHT22;9641;51.494;6.670;2022-07-29T11:39:44;23.40;1.00
19017;DHT22;9641;51.494;6.670;2022-07-29T11:42:45;23.20;1.00
19017;DHT22;9641;51.494;6.670;2022-07-29T11:45:24;23.00;1.00
19017;DHT22;9641;51.494;6.670;2022-07-29T11:47:56;22.90;1.00
19017;DHT22;9641;51.494;6.670;2022-07-29T11:50:33;22.80;1.00
19017;DHT22;9641;51.494;6.670;2022-07-29T11:53:09;22.60;1.00
19017;DHT22;9641;51.494;6.670;2022-07-29T11:55:38;22.50;1.00
19017;DHT22;9641;51.494;6.670;2022-07-29T11:58:07;22.40;99.90
19017;DHT22;9641;51.494;6.670;2022-07-29T12:00:37;22.30;99.90
19017;DHT22;9641;51.494;6.670;2022-07-29T12:03:06;22.20;99.90
19017;DHT22;9641;51.494;6.670;2022-07-29T12:05:39;21.90;1.00
19017;DHT22;9641;51.494;6.670;2022-07-29T12:08:13;21.90;1.00
19017;DHT22;9641;51.494;6.670;2022-07-29T12:10:42;21.90;1.00
19017;DHT22;9641;51.494;6.670;2022-07-29T12:13:11;22.00;99.90
19017;DHT22;9641;51.494;6.670;2022-07-29T12:15:39;22.00;99.90
19017;DHT22;9641;51.494;6.670;2022-07-29T12:18:11;21.80;1.00
19017;DHT22;9641;51.494;6.670;2022-07-29T12:20:38;21.70;1.00
19017;DHT22;9641;51.494;6.670;2022-07-29T12:23:10;21.60;1.00
19017;DHT22;9641;51.494;6.670;2022-07-29T12:25:46;21.50;1.00
19017;DHT22;9641;51.494;6.670;2022-07-29T12:28:15;21.60;99.90
19017;DHT22;9641;51.494;6.670;2022-07-29T12:30:45;21.60;1.00
19017;DHT22;9641;51.494;6.670;2022-07-29T12:33:19;21.80;1.00
19017;DHT22;9641;51.494;6.670;2022-07-29T12:35:48;21.70;99.90
19017;DHT22;9641;51.494;6.670;2022-07-29T12:38:16;21.70;99.90
19017;DHT22;9641;51.494;6.670;2022-07-29T12:40:46;21.70;1.00
19017;DHT22;9641;51.494;6.670;2022-07-29T12:43:16;21.60;99.90
19017;DHT22;9641;51.494;6.670;2022-07-29T12:45:44;21.50;1.00
19017;DHT22;9641;51.494;6.670;2022-07-29T12:48:11;21.40;1.00
19017;DHT22;9641;51.494;6.670;2022-07-29T12:50:56;21.40;1.00
19017;DHT22;9641;51.494;6.670;2022-07-29T12:53:24;21.40;99.90
19017;DHT22;9641;51.494;6.670;2022-07-29T12:55:53;21.40;99.90
19017;DHT22;9641;51.494;6.670;2022-07-29T12:58:30;21.30;99.90
19017;DHT22;9641;51.494;6.670;2022-07-29T13:01:06;21.30;99.90
19017;DHT22;9641;51.494;6.670;2022-07-29T13:03:46;21.30;99.90
19017;DHT22;9641;51.494;6.670;2022-07-29T13:06:34;21.30;1.00
19017;DHT22;9641;51.494;6.670;2022-07-29T13:09:04;21.30;1.00
19017;DHT22;9641;51.494;6.670;2022-07-29T13:11:34;21.30;1.00
19017;DHT22;9641;51.494;6.670;2022-07-29T13:14:03;21.30;1.00
19017;DHT22;9641;51.494;6.670;2022-07-29T13:16:30;21.30;1.00
19017;DHT22;9641;51.494;6.670;2022-07-29T13:19:09;21.40;91.70
19017;DHT22;9641;51.494;6.670;2022-07-29T13:21:38;21.40;1.00
19017;DHT22;9641;51.494;6.670;2022-07-29T13:24:06;21.40;1.00
19017;DHT22;9641;51.494;6.670;2022-07-29T13:26:33;21.50;99.90
19017;DHT22;9641;51.494;6.670;2022-07-29T13:29:04;21.70;1.00
19017;DHT22;9641;51.494;6.670;2022-07-29T13:31:30;21.70;99.90
19017;DHT22;9641;51.494;6.670;2022-07-29T13:33:57;21.80;91.50
19017;DHT22;9641;51.494;6.670;2022-07-29T13:36:24;22.00;1.00
19017;DHT22;9641;51.494;6.670;2022-07-29T13:38:52;22.20;1.00
19017;DHT22;9641;51.494;6.670;2022-07-29T13:41:19;22.30;1.00
19017;DHT22;9641;51.494;6.670;2022-07-29T13:43:46;22.50;1.00
19017;DHT22;9641;51.494;6.670;2022-07-29T13:46:14;22.70;1.00
19017;DHT22;9641;51.494;6.670;2022-07-29T13:48:43;22.80;1.00
19017;DHT22;9641;51.494;6.670;2022-07-29T13:51:10;22.70;99.90
19017;DHT22;9641;51.494;6.670;2022-07-29T13:53:38;22.90;99.90
19017;DHT22;9641;51.494;6.670;2022-07-29T13:56:05;23.20;99.90
19017;DHT22;9641;51.494;6.670;2022-07-29T13:58:32;23.40;99.90
19017;DHT22;9641;51.494;6.670;2022-07-29T14:01:00;23.80;99.90
19017;DHT22;9641;51.494;6.670;2022-07-29T14:03:29;24.00;99.90
19017;DHT22;9641;51.494;6.670;2022-07-29T14:05:56;24.20;99.90
19017;DHT22;9641;51.494;6.670;2022-07-29T14:08:25;24.40;99.90
19017;DHT22;9641;51.494;6.670;2022-07-29T14:10:52;24.50;99.90
19017;DHT22;9641;51.494;6.670;2022-07-29T14:13:19;24.60;99.90
19017;DHT22;9641;51.494;6.670;2022-07-29T14:15:46;25.00;99.90
19017;DHT22;9641;51.494;6.670;2022-07-29T14:18:14;25.40;99.90
19017;DHT22;9641;51.494;6.670;2022-07-29T14:20:42;26.00;99.90
19017;DHT22;9641;51.494;6.670;2022-07-29T14:23:09;27.10;99.90
19017;DHT22;9641;51.494;6.670;2022-07-29T14:25:36;28.50;79.50
19017;DHT22;9641;51.494;6.670;2022-07-29T14:28:03;29.20;65.10
19017;DHT22;9641;51.494;6.670;2022-07-29T14:30:33;29.80;10.60
19017;DHT22;9641;51.494;6.670;2022-07-29T14:33:00;30.00;1.00
19017;DHT22;9641;51.494;6.670;2022-07-29T14:35:27;30.30;1.00
19017;DHT22;9641;51.494;6.670;2022-07-29T14:37:55;30.90;1.00
19017;DHT22;9641;51.494;6.670;2022-07-29T14:40:23;31.30;1.00
19017;DHT22;9641;51.494;6.670;2022-07-29T14:42:51;32.00;1.00
19017;DHT22;9641;51.494;6.670;2022-07-29T14:45:18;31.60;1.00
19017;DHT22;9641;51.494;6.670;2022-07-29T14:47:45;32.10;1.00
19017;DHT22;9641;51.494;6.670;2022-07-29T14:50:12;32.70;1.00
19017;DHT22;9641;51.494;6.670;2022-07-29T14:52:39;32.40;1.00
19017;DHT22;9641;51.494;6.670;2022-07-29T14:55:08;32.30;1.00
19017;DHT22;9641;51.494;6.670;2022-07-29T14:57:37;32.90;1.00
19017;DHT22;9641;51.494;6.670;2022-07-29T15:00:06;33.00;1.00
19017;DHT22;9641;51.494;6.670;2022-07-29T15:02:33;33.40;1.00
19017;DHT22;9641;51.494;6.670;2022-07-29T15:05:01;33.60;1.00
19017;DHT22;9641;51.494;6.670;2022-07-29T15:07:29;33.60;1.00
19017;DHT22;9641;51.494;6.670;2022-07-29T15:09:57;33.30;1.00
19017;DHT22;9641;51.494;6.670;2022-07-29T15:12:28;33.50;1.00
19017;DHT22;9641;51.494;6.670;2022-07-29T15:14:54;33.90;1.00
19017;DHT22;9641;51.494;6.670;2022-07-29T15:17:21;34.30;1.00
19017;DHT22;9641;51.494;6.670;2022-07-29T15:19:48;34.60;1.00
19017;DHT22;9641;51.494;6.670;2022-07-29T15:22:15;34.90;1.00
19017;DHT22;9641;51.494;6.670;2022-07-29T15:24:42;35.40;1.00
19017;DHT22;9641;51.494;6.670;2022-07-29T15:27:09;34.80;1.00
19017;DHT22;9641;51.494;6.670;2022-07-29T15:29:42;34.40;1.00
19017;DHT22;9641;51.494;6.670;2022-07-29T15:32:09;34.10;1.00
19017;DHT22;9641;51.494;6.670;2022-07-29T15:34:36;34.00;1.00
19017;DHT22;9641;51.494;6.670;2022-07-29T15:37:05;34.40;1.00
19017;DHT22;9641;51.494;6.670;2022-07-29T15:39:33;34.90;1.00
19017;DHT22;9641;51.494;6.670;2022-07-29T15:42:03;35.10;1.00
19017;DHT22;9641;51.494;6.670;2022-07-29T15:44:30;34.90;1.00
19017;DHT22;9641;51.494;6.670;2022-07-29T15:46:59;34.90;1.00
19017;DHT22;9641;51.494;6.670;2022-07-29T15:49:35;35.40;1.00
19017;DHT22;9641;51.494;6.670;2022-07-29T15:52:04;35.90;1.00
19017;DHT22;9641;51.494;6.670;2022-07-29T15:54:33;36.20;1.00
19017;DHT22;9641;51.494;6.670;2022-07-29T15:57:00;36.20;1.00
19017;DHT22;9641;51.494;6.670;2022-07-29T15:59:27;36.20;1.00
19017;DHT22;9641;51.494;6.670;2022-07-29T16:01:54;35.70;1.00
19017;DHT22;9641;51.494;6.670;2022-07-29T16:04:23;35.00;1.00
19017;DHT22;9641;51.494;6.670;2022-07-29T16:06:49;34.80;1.00
19017;DHT22;9641;51.494;6.670;2022-07-29T16:09:17;33.90;1.00
19017;DHT22;9641;51.494;6.670;2022-07-29T16:11:44;33.50;1.00
19017;DHT22;9641;51.494;6.670;2022-07-29T16:14:13;33.10;1.00
19017;DHT22;9641;51.494;6.670;2022-07-29T16:16:41;32.80;1.00
19017;DHT22;9641;51.494;6.670;2022-07-29T16:19:08;33.00;1.00